Главная страница
METAR-TAF:

METAR-TAF

Аэропорты :

Leesburg, Виргиния, США

широта: 39-05N, долгота: 077-34W, высота над уровнем моря: 119 м

Текущие метеонаблюдения

Эта сводка был подготовлена 21 минут назад, в 16:35 UTC
Ветер 10 Узел от южный
Температура -1°C
Влажность 93%
Давление 1028 hPa
Видимость: 11.3 км
Сплошная облачность на высоте 7000 фута

METAR: KJYO 181635Z AUTO 18010KT 7SM OVC070 M01/M02 A3037 RMK AO2

Время: 11:56 (16:56 UTC)


TAF: отсутствует

Метеонаблюдения и прогнозы для более 4000 аэропортов (сводки METAR и TAF).

Имеющиеся станции представлены на карте желтыми и красными точками.

Чтобы увидеть название станции, наведите на нее мышь.

Затем щелкните, чтобы увидеть метеонаблюдения и метеопрогнозы.

Управление картой: чтобы увеличить масштаб, щелкните зеленые кнопки с черным крестиком; чтобы уменьшить масштаб, щелкните зеленую кнопку с тире; для просмотра соседних карт щелкайте зеленые стрелки.


METAR-TAF: